createdAt,value
2022-10-18T00:02:43.055Z,14.27
2022-10-18T00:05:44.701Z,13.10
2022-10-18T00:08:46.343Z,12.10
2022-10-18T00:11:47.934Z,12.40
2022-10-18T00:14:50.920Z,13.40
2022-10-18T00:17:52.634Z,10.43
2022-10-18T00:20:58.255Z,11.70
2022-10-18T00:24:00.498Z,12.90
2022-10-18T00:27:02.113Z,11.97
2022-10-18T00:30:05.088Z,10.63
2022-10-18T00:33:06.664Z,18.53
2022-10-18T00:36:08.600Z,20.20
2022-10-18T00:39:17.144Z,14.97
2022-10-18T00:42:20.613Z,15.23
2022-10-18T00:45:24.560Z,17.67
2022-10-18T00:48:26.367Z,12.13
2022-10-18T00:51:33.475Z,13.00
2022-10-18T00:54:38.008Z,16.20
2022-10-18T00:57:42.537Z,13.87
2022-10-18T01:00:44.231Z,14.83
2022-10-18T01:03:45.879Z,16.57
2022-10-18T01:07:08.946Z,15.27
2022-10-18T01:10:10.460Z,17.20
2022-10-18T01:13:41.548Z,14.33
2022-10-18T01:16:53.645Z,13.30
2022-10-18T01:20:19.090Z,11.83
2022-10-18T01:23:39.590Z,17.40
2022-10-18T01:27:13.490Z,14.80
2022-10-18T01:30:37.949Z,13.70
2022-10-18T01:33:53.557Z,10.47
2022-10-18T01:36:56.845Z,13.20
2022-10-18T01:40:00.176Z,14.17
2022-10-18T01:43:03.221Z,13.67
2022-10-18T01:46:05.149Z,14.17
2022-10-18T01:49:07.398Z,13.43
2022-10-18T01:52:16.242Z,15.77
2022-10-18T01:55:24.427Z,16.20
2022-10-18T01:58:31.140Z,16.20
2022-10-18T02:01:48.668Z,14.43
2022-10-18T02:05:14.289Z,14.60
2022-10-18T02:08:37.326Z,17.13
2022-10-18T02:11:40.798Z,11.20
2022-10-18T02:14:43.745Z,13.93
2022-10-18T02:17:46.562Z,19.90
2022-10-18T02:20:49.568Z,13.77
2022-10-18T02:23:52.539Z,16.57
2022-10-18T02:26:54.099Z,17.57
2022-10-18T02:29:55.842Z,16.33
2022-10-18T02:33:05.229Z,18.43
2022-10-18T02:36:18.195Z,17.97
2022-10-18T02:39:24.448Z,13.63
2022-10-18T02:42:32.969Z,19.80
2022-10-18T02:45:34.758Z,17.40
2022-10-18T02:48:36.352Z,15.83
2022-10-18T02:51:37.928Z,20.60
2022-10-18T02:54:39.525Z,18.00
2022-10-18T02:57:41.228Z,15.03
2022-10-18T03:00:42.792Z,12.80
2022-10-18T03:03:44.380Z,17.93
2022-10-18T03:06:45.937Z,21.80
2022-10-18T03:09:47.527Z,19.20
2022-10-18T03:12:49.084Z,27.97
2022-10-18T03:15:50.646Z,19.90
2022-10-18T03:18:52.222Z,22.40
2022-10-18T03:21:53.813Z,29.27
2022-10-18T03:24:55.412Z,26.20
2022-10-18T03:27:56.977Z,22.10
2022-10-18T03:31:03.153Z,28.40
2022-10-18T03:34:05.023Z,22.90
2022-10-18T03:37:06.709Z,22.17
2022-10-18T03:40:11.932Z,19.70
2022-10-18T03:43:13.582Z,23.50
2022-10-18T03:46:15.135Z,24.83
2022-10-18T03:49:16.707Z,21.13
2022-10-18T03:52:18.298Z,18.60
2022-10-18T03:55:19.895Z,21.67
2022-10-18T03:58:22.208Z,22.50
2022-10-18T04:01:24.207Z,17.67
2022-10-18T04:04:25.835Z,25.73
2022-10-18T04:07:27.464Z,23.57
2022-10-18T04:10:29.211Z,27.40
2022-10-18T04:13:30.785Z,20.87
2022-10-18T04:16:32.412Z,24.13
2022-10-18T04:19:34.049Z,24.10
2022-10-18T04:22:35.668Z,18.27
2022-10-18T04:25:37.253Z,19.50
2022-10-18T04:28:40.168Z,26.30
2022-10-18T04:31:42.559Z,21.20
2022-10-18T04:34:44.163Z,21.60
2022-10-18T04:37:45.792Z,20.00
2022-10-18T04:40:47.379Z,23.17
2022-10-18T04:43:49.161Z,19.00
2022-10-18T04:46:50.763Z,25.47
2022-10-18T04:49:52.336Z,23.83
2022-10-18T04:52:53.952Z,21.13
2022-10-18T04:55:55.590Z,19.23
2022-10-18T04:58:58.329Z,21.43
2022-10-18T05:01:59.988Z,25.10
2022-10-18T05:05:01.624Z,17.33
2022-10-18T05:08:03.748Z,22.00
2022-10-18T05:11:05.612Z,21.93
2022-10-18T05:14:09.994Z,21.90
2022-10-18T05:17:11.576Z,21.63
2022-10-18T05:23:19.735Z,22.07
2022-10-18T05:26:21.299Z,21.13
2022-10-18T05:29:23.160Z,20.70
2022-10-18T05:32:24.940Z,19.00
2022-10-18T05:35:26.558Z,19.83
2022-10-18T05:38:30.784Z,20.47
2022-10-18T05:41:32.817Z,21.23
2022-10-18T05:44:34.684Z,24.23
2022-10-18T05:47:36.321Z,21.77
2022-10-18T05:50:40.239Z,20.27
2022-10-18T05:53:42.220Z,22.97
2022-10-18T05:56:43.810Z,40.00
2022-10-18T05:59:45.439Z,25.93
2022-10-18T06:02:47.120Z,23.67
2022-10-18T06:05:48.718Z,22.07
2022-10-18T06:08:50.520Z,20.83
2022-10-18T06:11:52.220Z,16.50
2022-10-18T06:14:54.174Z,18.27
2022-10-18T06:17:55.839Z,19.37
2022-10-18T06:20:59.153Z,21.17
2022-10-18T06:24:00.817Z,21.10
2022-10-18T06:27:08.368Z,21.30
2022-10-18T06:30:10.395Z,19.40
2022-10-18T06:33:11.966Z,22.57
2022-10-18T06:36:19.415Z,20.03
2022-10-18T06:39:21.059Z,24.97
2022-10-18T06:42:22.802Z,21.43
2022-10-18T06:45:24.463Z,20.50
2022-10-18T06:48:26.032Z,19.03
2022-10-18T06:51:27.617Z,18.83
2022-10-18T06:54:29.325Z,23.73
2022-10-18T06:57:31.615Z,22.00
2022-10-18T07:00:33.221Z,27.83
2022-10-18T07:03:35.266Z,17.10
2022-10-18T07:06:36.871Z,21.00
2022-10-18T07:09:39.224Z,23.23
2022-10-18T07:12:40.857Z,27.60
2022-10-18T07:15:42.450Z,39.07
2022-10-18T07:18:50.512Z,21.23
2022-10-18T07:21:52.124Z,20.80
2022-10-18T07:24:53.697Z,18.13
2022-10-18T07:27:55.270Z,19.53
2022-10-18T07:30:57.230Z,16.67
2022-10-18T07:33:59.145Z,23.63
2022-10-18T07:37:02.144Z,16.67
2022-10-18T07:40:04.033Z,15.27
2022-10-18T07:43:06.813Z,18.80
2022-10-18T07:46:09.964Z,20.63
2022-10-18T07:49:11.516Z,15.33
2022-10-18T07:52:13.173Z,16.80
2022-10-18T07:55:15.356Z,16.03
2022-10-18T07:58:16.953Z,19.90
2022-10-18T08:01:20.082Z,18.30
2022-10-18T08:04:21.797Z,19.10
2022-10-18T08:07:23.354Z,17.00
2022-10-18T08:10:24.955Z,19.83
2022-10-18T08:13:26.552Z,21.50
2022-10-18T08:16:29.162Z,15.47
2022-10-18T08:19:30.885Z,18.13
2022-10-18T08:22:32.648Z,15.90
2022-10-18T08:28:46.063Z,18.90
2022-10-18T08:31:55.416Z,14.57
2022-10-18T08:34:56.968Z,15.57
2022-10-18T08:37:59.240Z,14.60
2022-10-18T08:41:22.450Z,15.70
2022-10-18T08:44:30.871Z,15.60
2022-10-18T08:47:38.763Z,15.20
2022-10-18T08:50:41.294Z,13.07
2022-10-18T08:54:01.717Z,14.10
2022-10-18T08:57:10.839Z,11.47
2022-10-18T09:00:24.404Z,15.00
2022-10-18T09:03:54.860Z,15.10
2022-10-18T09:07:04.910Z,17.57
2022-10-18T09:10:38.518Z,13.63
2022-10-18T09:14:28.543Z,14.47
2022-10-18T09:17:50.083Z,17.60
2022-10-18T09:20:58.561Z,14.33
2022-10-18T09:24:15.804Z,13.63
2022-10-18T09:27:19.456Z,16.33
2022-10-18T09:30:42.416Z,15.93
2022-10-18T09:34:20.690Z,20.23
2022-10-18T09:37:23.942Z,16.17
2022-10-18T09:40:29.022Z,14.50
2022-10-18T09:43:52.563Z,11.07
2022-10-18T09:47:22.887Z,11.33
2022-10-18T09:50:29.830Z,11.80
2022-10-18T09:53:53.165Z,10.73
2022-10-18T10:00:03.339Z,9.00
2022-10-18T10:03:12.899Z,9.63
2022-10-18T10:06:15.979Z,8.67
2022-10-18T10:09:21.322Z,7.73
2022-10-18T10:12:36.896Z,10.53
2022-10-18T10:15:42.445Z,8.23
2022-10-18T10:18:44.313Z,8.63
2022-10-18T10:21:48.289Z,6.20
2022-10-18T10:24:51.521Z,8.33
2022-10-18T10:27:53.408Z,7.23
2022-10-18T10:31:14.959Z,4.50
2022-10-18T10:34:19.720Z,7.00
2022-10-18T10:37:34.664Z,5.40
2022-10-18T10:40:55.606Z,5.63
2022-10-18T10:43:57.664Z,5.97
2022-10-18T10:46:59.844Z,5.70
2022-10-18T10:50:12.952Z,7.17
2022-10-18T10:53:41.267Z,3.97
2022-10-18T10:57:12.350Z,4.37
2022-10-18T11:00:32.368Z,5.03
2022-10-18T11:03:34.085Z,3.40
2022-10-18T11:06:43.102Z,4.60
2022-10-18T11:09:51.182Z,4.97
2022-10-18T11:13:09.300Z,5.67
2022-10-18T11:16:22.026Z,4.37
2022-10-18T11:19:40.136Z,6.47
2022-10-18T11:23:01.873Z,3.20
2022-10-18T11:26:09.236Z,4.33
2022-10-18T11:29:52.001Z,7.67
2022-10-18T11:33:32.638Z,3.33
2022-10-18T11:37:25.873Z,4.10
2022-10-18T11:40:53.193Z,3.63
2022-10-18T11:44:02.703Z,4.53
2022-10-18T11:47:38.690Z,5.87
2022-10-18T11:51:25.571Z,3.60
2022-10-18T11:54:59.336Z,5.00
2022-10-18T11:58:18.129Z,3.37
2022-10-18T12:01:40.564Z,3.87
2022-10-18T12:05:05.147Z,2.90
2022-10-18T12:08:31.650Z,3.50
2022-10-18T12:11:47.454Z,2.53
2022-10-18T12:14:53.721Z,3.73
2022-10-18T12:17:59.763Z,2.30
2022-10-18T12:21:02.552Z,1.40
2022-10-18T12:24:27.468Z,1.88
2022-10-18T12:27:40.098Z,1.30
2022-10-18T12:31:11.861Z,1.53
2022-10-18T12:34:25.672Z,1.00
2022-10-18T12:38:00.436Z,2.50
2022-10-18T12:41:03.059Z,1.90
2022-10-18T12:44:18.390Z,1.27
2022-10-18T12:47:25.213Z,2.20
2022-10-18T12:50:34.942Z,2.70
2022-10-18T12:53:36.698Z,2.30
2022-10-18T12:56:43.209Z,2.97
2022-10-18T12:59:44.859Z,1.93
2022-10-18T13:02:46.545Z,2.30
2022-10-18T13:05:56.056Z,1.80
2022-10-18T13:09:17.049Z,1.00
2022-10-18T13:12:18.777Z,3.40
2022-10-18T13:15:35.181Z,1.90
2022-10-18T13:18:43.648Z,0.93
2022-10-18T13:22:10.775Z,1.00
2022-10-18T13:25:24.566Z,1.60
2022-10-18T13:28:49.162Z,1.93
2022-10-18T13:31:58.593Z,1.30
2022-10-18T13:35:00.250Z,1.10
2022-10-18T13:38:02.526Z,1.00
2022-10-18T13:41:13.119Z,1.10
2022-10-18T13:44:40.418Z,1.77
2022-10-18T13:47:42.089Z,3.33
2022-10-18T13:50:45.949Z,2.13
2022-10-18T13:53:47.473Z,1.27
2022-10-18T13:57:10.846Z,2.23
2022-10-18T14:00:57.254Z,2.40
2022-10-18T14:04:21.146Z,3.10
2022-10-18T14:07:26.863Z,1.30
2022-10-18T14:11:03.004Z,3.10
2022-10-18T14:14:42.336Z,2.20
2022-10-18T14:17:59.007Z,1.83
2022-10-18T14:21:16.903Z,2.43
2022-10-18T14:24:26.465Z,1.53
2022-10-18T14:27:32.439Z,2.53
2022-10-18T14:30:35.601Z,1.60
2022-10-18T14:33:46.770Z,1.63
2022-10-18T14:36:49.974Z,1.90
2022-10-18T14:39:51.609Z,1.60
2022-10-18T14:42:53.287Z,3.10
2022-10-18T14:45:54.967Z,1.60
2022-10-18T14:49:03.850Z,3.50
2022-10-18T14:52:05.482Z,1.50
2022-10-18T14:55:24.599Z,2.93
2022-10-18T14:58:27.081Z,2.17
2022-10-18T15:01:31.421Z,1.70
2022-10-18T15:04:33.283Z,1.33
2022-10-18T15:07:35.770Z,1.20
2022-10-18T15:10:37.976Z,2.50
2022-10-18T15:13:59.011Z,1.17
2022-10-18T15:17:04.662Z,1.40
2022-10-18T15:20:28.568Z,1.93
2022-10-18T15:23:31.275Z,3.20
2022-10-18T15:26:32.925Z,0.90
2022-10-18T15:29:36.608Z,4.03
2022-10-18T15:32:40.251Z,1.23
2022-10-18T15:35:41.853Z,1.40
2022-10-18T15:38:47.496Z,1.40
2022-10-18T15:41:58.912Z,1.30
2022-10-18T15:45:00.734Z,1.37
2022-10-18T15:48:12.010Z,2.07
2022-10-18T15:51:46.445Z,3.03
2022-10-18T15:58:04.423Z,1.33
2022-10-18T16:01:15.299Z,1.20
2022-10-18T16:04:22.897Z,1.40
2022-10-18T16:07:24.492Z,1.73
2022-10-18T16:10:26.181Z,3.17
2022-10-18T16:13:27.924Z,2.30
2022-10-18T16:16:29.996Z,2.43
2022-10-18T16:19:32.776Z,2.60
2022-10-18T16:22:36.964Z,2.27
2022-10-18T16:25:38.803Z,1.80
2022-10-18T16:28:41.227Z,3.20
2022-10-18T16:31:43.080Z,2.50
2022-10-18T16:34:44.674Z,3.63
2022-10-18T16:37:46.519Z,3.30
2022-10-18T16:40:48.336Z,2.77
2022-10-18T16:43:51.989Z,3.27
2022-10-18T16:46:54.187Z,6.03
2022-10-18T16:50:01.526Z,12.47
2022-10-18T16:53:05.845Z,9.77
2022-10-18T16:56:14.318Z,9.10
2022-10-18T16:59:29.324Z,9.23
2022-10-18T17:02:31.259Z,8.80
2022-10-18T17:05:33.103Z,12.57
2022-10-18T17:08:34.661Z,8.13
2022-10-18T17:11:38.951Z,7.87
2022-10-18T17:14:40.515Z,7.63
2022-10-18T17:17:42.184Z,7.13
2022-10-18T17:20:44.471Z,8.70
2022-10-18T17:23:46.271Z,8.03
2022-10-18T17:26:47.895Z,7.03
2022-10-18T17:29:49.492Z,8.03
2022-10-18T17:32:51.148Z,8.43
2022-10-18T17:35:52.738Z,7.50
2022-10-18T17:38:54.923Z,6.17
2022-10-18T17:41:56.714Z,8.63
2022-10-18T17:44:58.341Z,5.70
2022-10-18T17:47:59.983Z,7.80
2022-10-18T17:51:13.251Z,7.90
2022-10-18T17:54:14.862Z,4.93
2022-10-18T17:57:16.552Z,6.17
2022-10-18T18:00:18.213Z,5.63
2022-10-18T18:03:20.066Z,9.40
2022-10-18T18:06:30.617Z,9.80
2022-10-18T18:09:32.492Z,11.47
2022-10-18T18:12:34.510Z,5.67
2022-10-18T18:15:36.263Z,5.00
2022-10-18T18:18:37.889Z,4.70
2022-10-18T18:21:40.803Z,11.27
2022-10-18T18:24:42.653Z,9.57
2022-10-18T18:27:44.219Z,5.87
2022-10-18T18:30:45.827Z,4.13
2022-10-18T18:33:47.391Z,3.70
2022-10-18T18:36:49.331Z,3.83
2022-10-18T18:39:51.020Z,5.10
2022-10-18T18:43:07.102Z,6.40
2022-10-18T18:46:13.995Z,7.77
2022-10-18T18:49:15.899Z,11.00
2022-10-18T18:52:17.472Z,5.30
2022-10-18T18:55:19.044Z,6.07
2022-10-18T18:58:20.660Z,6.57
2022-10-18T19:01:25.426Z,5.87
2022-10-18T19:04:28.967Z,10.97
2022-10-18T19:07:30.889Z,5.33
2022-10-18T19:10:32.796Z,6.33
2022-10-18T19:13:34.647Z,6.73
2022-10-18T19:16:45.418Z,6.20
2022-10-18T19:19:46.995Z,7.70
2022-10-18T19:22:48.708Z,4.97
2022-10-18T19:25:50.339Z,8.47
2022-10-18T19:28:51.937Z,7.33
2022-10-18T19:31:57.034Z,7.37
2022-10-18T19:34:58.681Z,6.13
2022-10-18T19:38:00.257Z,6.60
2022-10-18T19:41:01.879Z,6.67
2022-10-18T19:44:03.660Z,7.50
2022-10-18T19:47:07.377Z,9.80
2022-10-18T19:50:09.142Z,9.90
2022-10-18T19:53:10.730Z,6.00
2022-10-18T19:56:19.141Z,6.80
2022-10-18T19:59:22.425Z,6.60
2022-10-18T20:02:24.055Z,8.03
2022-10-18T20:05:25.823Z,7.53
2022-10-18T20:08:29.497Z,8.13
2022-10-18T20:11:31.441Z,10.43
2022-10-18T20:14:33.000Z,16.03
2022-10-18T20:17:34.696Z,10.73
2022-10-18T20:20:36.981Z,9.40
2022-10-18T20:23:41.105Z,8.80
2022-10-18T20:26:43.643Z,9.00
2022-10-18T20:29:46.783Z,10.57
2022-10-18T20:32:50.839Z,9.43
2022-10-18T20:35:52.518Z,8.80
2022-10-18T20:38:54.800Z,8.03
2022-10-18T20:41:56.389Z,11.93
2022-10-18T20:44:58.014Z,8.50
2022-10-18T20:47:59.619Z,12.00
2022-10-18T20:51:12.567Z,10.93
2022-10-18T20:54:14.217Z,20.63
2022-10-18T20:57:15.833Z,13.80
2022-10-18T21:00:17.451Z,16.57
2022-10-18T21:03:19.010Z,10.87
2022-10-18T21:06:31.557Z,9.37
2022-10-18T21:09:33.404Z,13.13
2022-10-18T21:12:35.254Z,13.90
2022-10-18T21:15:37.157Z,14.50
2022-10-18T21:18:40.281Z,13.03
2022-10-18T21:21:44.312Z,11.67
2022-10-18T21:24:46.473Z,8.07
2022-10-18T21:27:48.058Z,10.20
2022-10-18T21:30:49.639Z,11.20
2022-10-18T21:34:03.209Z,9.00
2022-10-18T21:37:04.809Z,10.90
2022-10-18T21:40:07.269Z,14.63
2022-10-18T21:43:08.843Z,18.70
2022-10-18T21:46:11.299Z,14.17
2022-10-18T21:49:14.021Z,20.80
2022-10-18T21:52:16.516Z,25.17
2022-10-18T21:55:18.073Z,25.73
2022-10-18T21:58:19.706Z,18.20
2022-10-18T22:01:32.933Z,14.57
2022-10-18T22:04:35.698Z,19.53
2022-10-18T22:07:37.646Z,18.23
2022-10-18T22:10:39.276Z,15.53
2022-10-18T22:13:41.346Z,18.60
2022-10-18T22:16:42.904Z,9.90
2022-10-18T22:19:44.501Z,15.13
2022-10-18T22:22:46.243Z,8.23
2022-10-18T22:25:47.976Z,6.77
2022-10-18T22:28:55.838Z,8.37
2022-10-18T22:31:57.503Z,10.27
2022-10-18T22:34:59.083Z,11.20
2022-10-18T22:38:00.651Z,13.33
2022-10-18T22:41:07.196Z,10.83
2022-10-18T22:44:12.188Z,14.13
2022-10-18T22:47:13.782Z,13.70
2022-10-18T22:50:15.422Z,16.97
2022-10-18T22:53:17.048Z,14.03
2022-10-18T22:56:20.924Z,12.67
2022-10-18T22:59:23.036Z,15.40
2022-10-18T23:02:24.632Z,17.17
2022-10-18T23:05:26.185Z,20.27
2022-10-18T23:08:28.117Z,17.10
2022-10-18T23:11:29.714Z,19.63
2022-10-18T23:14:31.289Z,16.10
2022-10-18T23:17:33.192Z,18.30
2022-10-18T23:20:34.908Z,23.63
2022-10-18T23:23:38.562Z,25.50
2022-10-18T23:26:40.175Z,24.40
2022-10-18T23:29:41.765Z,21.63
2022-10-18T23:32:43.407Z,26.23
2022-10-18T23:35:45.008Z,19.30
2022-10-18T23:38:46.723Z,24.23
2022-10-18T23:41:48.305Z,21.30
2022-10-18T23:44:49.900Z,19.87
2022-10-18T23:47:51.456Z,25.40
2022-10-18T23:50:53.413Z,22.87
2022-10-18T23:53:54.999Z,26.50
2022-10-18T23:56:56.562Z,27.83
2022-10-18T23:59:58.124Z,23.53
